Time;durP1;ratioP1;P1;durP2;ratioP2;P2;SDS_P1;SDS_P2;PMS_P1;PMS_P2;Temp;Humidity;BMP_temperature;BMP_pressure;BME280_temperature;BME280_humidity;BME280_pressure;Samples;Min_cycle;Max_cycle;Signal;HPM_P1;HPM_P2
2022/01/17 00:00:25;;;;;;;83.03;35.35;;;7.00;99.90;;;5.00;100.00;101900.25;6095590;23;20046;-90
2022/01/17 00:02:54;;;;;;;82.07;36.22;;;7.00;99.90;;;5.00;100.00;101900.25;6095900;23;20552;-90
2022/01/17 00:05:23;;;;;;;80.78;35.90;;;7.00;99.90;;;5.01;100.00;101907.38;6095052;23;20050;-90
2022/01/17 00:07:50;;;;;;;83.60;35.92;;;7.00;99.90;;;4.98;100.00;101904.91;6121245;23;20429;-90
2022/01/17 00:10:18;;;;;;;78.32;35.08;;;7.00;99.90;;;5.05;100.00;101908.03;6121529;23;20028;-91
2022/01/17 00:12:46;;;;;;;96.90;37.10;;;7.00;99.90;;;5.00;100.00;101908.34;6121304;23;20022;-90
2022/01/17 00:15:20;;;;;;;85.15;34.28;;;7.00;99.90;;;5.09;100.00;101921.16;6122714;23;20330;-91
2022/01/17 00:17:51;;;;;;;72.30;32.95;;;7.00;99.90;;;5.06;100.00;101921.41;6122978;23;20080;-91
2022/01/17 00:20:25;;;;;;;75.88;31.83;;;7.00;99.90;;;5.04;100.00;101917.91;6096519;23;20029;-91
2022/01/17 00:22:55;;;;;;;69.45;32.10;;;7.00;99.90;;;5.06;100.00;101932.19;6123098;23;20046;-90
2022/01/17 00:25:22;;;;;;;68.97;31.85;;;7.00;99.90;;;5.01;100.00;101928.97;6123010;23;20342;-91
2022/01/17 00:27:51;;;;;;;68.15;30.67;;;7.00;99.90;;;5.01;100.00;101938.91;6123309;23;20021;-91
2022/01/17 00:30:19;;;;;;;74.55;30.90;;;7.00;99.90;;;5.02;100.00;101927.13;6123241;23;20018;-90
2022/01/17 00:32:46;;;;;;;67.65;29.58;;;7.00;99.90;;;5.00;100.00;101942.56;6097249;23;20468;-91
2022/01/17 00:35:14;;;;;;;58.70;27.98;;;7.00;99.90;;;4.97;100.00;101930.16;6122662;23;20018;-91
2022/01/17 00:37:46;;;;;;;58.28;27.15;;;7.00;99.90;;;5.09;100.00;101928.41;6122729;23;20025;-91
2022/01/17 00:40:15;;;;;;;65.47;28.83;;;7.00;99.90;;;5.09;100.00;101917.59;6122731;23;20026;-90
2022/01/17 00:42:43;;;;;;;66.63;27.67;;;7.00;99.90;;;5.08;100.00;101919.44;6122861;23;20461;-90
2022/01/17 00:45:14;;;;;;;68.43;29.10;;;7.00;99.90;;;5.09;100.00;101910.34;6096824;23;20504;-92
2022/01/17 00:47:42;;;;;;;52.53;26.35;;;7.00;99.90;;;5.07;100.00;101916.84;6122489;23;20709;-91
2022/01/17 00:50:13;;;;;;;66.40;28.95;;;7.00;99.90;;;5.07;100.00;101917.72;6122974;23;20032;-90
2022/01/17 00:52:43;;;;;;;59.00;27.67;;;7.00;99.90;;;5.11;100.00;101917.50;6096661;23;20037;-91
2022/01/17 00:55:12;;;;;;;58.65;28.02;;;7.00;99.90;;;5.08;100.00;101915.88;6122979;23;20246;-91
2022/01/17 00:57:41;;;;;;;62.20;28.33;;;7.00;99.90;;;5.09;100.00;101926.56;6096584;23;20033;-92
2022/01/17 01:00:12;;;;;;;62.33;29.00;;;7.00;99.90;;;5.15;100.00;101936.03;6121107;23;20531;-91
2022/01/17 01:02:41;;;;;;;59.85;28.45;;;7.00;99.90;;;5.11;100.00;101939.94;6122933;23;20113;-91
2022/01/17 01:05:12;;;;;;;62.70;29.60;;;7.10;99.90;;;5.17;100.00;101944.00;6122733;23;20018;-90
2022/01/17 01:07:42;;;;;;;66.68;29.33;;;7.00;99.90;;;5.12;100.00;101946.19;6122425;23;20100;-91
2022/01/17 01:10:11;;;;;;;65.03;30.77;;;7.10;99.90;;;5.16;100.00;101951.25;6096606;23;20022;-91
2022/01/17 01:12:40;;;;;;;71.55;31.45;;;7.10;99.90;;;5.15;100.00;101954.06;6096947;23;20030;-91
2022/01/17 01:15:19;;;;;;;70.35;31.63;;;7.10;99.90;;;5.12;100.00;101935.38;6096548;23;20032;-91
2022/01/17 01:17:52;;;;;;;;;;;7.00;99.90;;;5.08;100.00;101935.63;6123039;23;20032;-90
2022/01/17 01:20:47;;;;;;;74.57;31.48;;;7.00;99.90;;;5.01;100.00;101915.47;6096710;23;19928;-91
2022/01/17 01:28:47;;;;;;;71.43;32.50;;;7.10;99.90;;;5.13;100.00;101915.53;6096700;23;20045;-91
2022/01/17 01:31:20;;;;;;;79.18;35.28;;;7.10;99.90;;;5.13;100.00;101916.38;6096470;23;20359;-91
2022/01/17 01:33:53;;;;;;;90.40;36.38;;;7.10;99.90;;;5.07;100.00;101911.47;6122708;23;20101;-91
2022/01/17 01:36:26;;;;;;;74.25;34.30;;;7.10;99.90;;;5.12;100.00;101925.44;6096084;23;20582;-90
2022/01/17 01:38:54;;;;;;;79.28;34.90;;;7.00;99.90;;;5.07;100.00;101928.50;6122303;23;20045;-91
2022/01/17 01:41:21;;;;;;;77.13;34.92;;;7.00;99.90;;;5.08;100.00;101943.72;6122438;23;20365;-91
2022/01/17 01:43:50;;;;;;;78.70;35.97;;;7.00;99.90;;;5.16;100.00;101953.97;6095816;23;20048;-91
2022/01/17 01:46:19;;;;;;;78.72;35.63;;;7.00;99.90;;;5.20;100.00;101965.38;6121789;23;20068;-90
2022/01/17 01:48:48;;;;;;;80.80;35.75;;;7.00;99.90;;;5.13;100.00;101969.50;6122143;23;20014;-90
2022/01/17 01:51:20;;;;;;;82.97;36.97;;;7.00;99.90;;;5.13;100.00;101981.16;6096132;23;20026;-91
2022/01/17 01:53:47;;;;;;;99.80;38.95;;;7.00;99.90;;;5.13;100.00;101969.50;6122173;23;20022;-91
2022/01/17 01:56:18;;;;;;;83.90;37.58;;;7.10;99.90;;;5.15;100.00;101956.75;6121850;23;20088;-91
2022/01/17 01:58:49;;;;;;;85.03;39.13;;;7.10;99.90;;;5.17;100.00;101961.06;6122198;23;20025;-91
2022/01/17 02:01:17;;;;;;;85.35;36.15;;;7.10;99.90;;;5.25;100.00;101957.78;6121309;23;20022;-91
2022/01/17 02:03:47;;;;;;;103.85;39.67;;;7.20;99.90;;;5.17;100.00;101949.41;6122354;23;20065;-91
2022/01/17 02:06:15;;;;;;;88.70;37.70;;;7.10;99.90;;;5.20;100.00;101944.66;6120459;23;20128;-91
2022/01/17 02:08:42;;;;;;;85.95;37.40;;;7.10;99.90;;;5.21;100.00;101945.50;6095766;23;20388;-90
2022/01/17 02:11:12;;;;;;;85.38;38.80;;;7.10;99.90;;;5.25;100.00;101953.28;6122064;23;20756;-91
2022/01/17 02:13:40;;;;;;;98.10;39.70;;;7.10;99.90;;;5.26;100.00;101964.94;6122285;23;20021;-91
2022/01/17 02:16:14;;;;;;;97.72;39.00;;;7.10;99.90;;;5.21;100.00;101959.00;6119858;23;20037;-91
2022/01/17 02:18:46;;;;;;;106.95;41.15;;;7.10;99.90;;;5.20;100.00;101949.19;6095879;23;20026;-92
2022/01/17 02:21:20;;;;;;;107.35;41.78;;;7.10;99.90;;;5.26;100.00;101943.34;6120562;23;20022;-90
2022/01/17 02:23:52;;;;;;;99.57;40.00;;;7.10;99.90;;;5.28;100.00;101946.78;6121622;23;20594;-91
2022/01/17 02:26:23;;;;;;;94.20;39.95;;;7.20;99.90;;;5.25;100.00;101952.41;6121489;23;20104;-91
2022/01/17 02:28:55;;;;;;;95.00;41.70;;;7.10;99.90;;;5.25;100.00;101941.59;6122168;23;20021;-90
2022/01/17 02:31:25;;;;;;;99.15;39.97;;;7.10;99.90;;;5.31;100.00;101949.22;6096567;23;20022;-91
2022/01/17 02:33:53;;;;;;;104.72;41.08;;;7.10;99.90;;;5.32;100.00;101959.06;6096225;23;20037;-93
2022/01/17 02:36:23;;;;;;;98.95;40.88;;;7.10;99.90;;;5.31;100.00;101957.31;6122302;23;20028;-90
2022/01/17 02:38:51;;;;;;;111.63;44.28;;;7.10;99.90;;;5.26;100.00;101946.03;6121811;23;20049;-91
2022/01/17 02:41:18;;;;;;;100.30;41.30;;;7.20;99.90;;;5.23;100.00;101943.56;6121554;23;20052;-90
2022/01/17 02:43:47;;;;;;;89.90;40.05;;;7.20;99.90;;;5.30;100.00;101952.91;6121724;23;20507;-92
2022/01/17 02:46:27;;;;;;;109.72;43.25;;;7.20;99.90;;;5.28;100.00;101941.38;6121882;23;20101;-91
2022/01/17 02:48:57;;;;;;;95.45;39.33;;;7.20;99.90;;;5.22;100.00;101937.31;6122211;23;20048;-90
2022/01/17 02:51:27;;;;;;;102.18;40.15;;;7.20;99.90;;;5.19;100.00;101926.72;6108088;23;20045;-91
2022/01/17 02:53:57;;;;;;;95.47;39.83;;;7.20;99.90;;;5.21;100.00;101916.66;6137516;23;20506;-92
2022/01/17 02:56:24;;;;;;;98.22;39.70;;;7.20;99.90;;;5.28;100.00;101930.59;6136897;23;20073;-90
2022/01/17 02:58:52;;;;;;;97.10;39.25;;;7.20;99.90;;;5.23;100.00;101921.97;6123267;23;20050;-91
2022/01/17 03:01:23;;;;;;;90.35;37.75;;;7.20;99.90;;;5.26;100.00;101922.59;6122897;23;20022;-90
2022/01/17 03:03:51;;;;;;;85.65;36.67;;;7.20;99.90;;;5.24;100.00;101915.59;6123117;23;20052;-90
2022/01/17 03:06:19;;;;;;;85.63;36.20;;;7.20;99.90;;;5.20;100.00;101927.59;6095919;23;20058;-91
2022/01/17 03:08:50;;;;;;;84.13;37.15;;;7.20;99.90;;;5.29;100.00;101934.97;6122046;23;20097;-91
2022/01/17 03:11:21;;;;;;;90.13;36.28;;;7.20;99.90;;;5.31;100.00;101938.44;6121871;23;20097;-91
2022/01/17 03:13:50;;;;;;;74.80;35.70;;;7.20;99.90;;;5.27;100.00;101928.84;6095996;23;20036;-91
2022/01/17 03:16:22;;;;;;;93.40;38.30;;;7.20;99.90;;;5.24;100.00;101927.25;6121179;23;20018;-91
2022/01/17 03:18:51;;;;;;;90.75;36.40;;;7.20;99.90;;;5.25;100.00;101918.19;6121843;23;20506;-90
2022/01/17 03:21:21;;;;;;;91.35;37.97;;;7.20;99.90;;;5.28;100.00;101926.03;6120394;23;20231;-91
2022/01/17 03:23:53;;;;;;;92.93;38.60;;;7.10;99.90;;;5.26;100.00;101921.75;6121246;23;20010;-90
2022/01/17 03:26:22;;;;;;;83.55;37.33;;;7.20;99.90;;;5.31;100.00;101935.72;6121129;23;20081;-91
2022/01/17 03:28:50;;;;;;;76.22;35.83;;;7.20;99.90;;;5.34;100.00;101949.00;6121667;23;20029;-91
2022/01/17 03:31:17;;;;;;;91.45;38.35;;;7.20;99.90;;;5.38;100.00;101942.41;6119986;23;20369;-90
2022/01/17 03:33:45;;;;;;;84.03;37.13;;;7.20;99.90;;;5.39;100.00;101943.28;6122416;23;20096;-92
2022/01/17 03:36:12;;;;;;;98.70;38.90;;;7.20;99.90;;;5.35;100.00;101936.38;6121454;23;20081;-92
2022/01/17 03:38:41;;;;;;;75.35;36.15;;;7.20;99.90;;;5.36;100.00;101944.34;6121790;23;20026;-91
2022/01/17 03:41:13;;;;;;;83.47;37.08;;;7.20;99.90;;;5.41;100.00;101952.97;6121721;23;20014;-92
2022/01/17 03:43:41;;;;;;;85.90;36.53;;;7.20;99.90;;;5.35;100.00;101947.16;6120624;23;20547;-91
2022/01/17 03:46:08;;;;;;;86.18;37.38;;;7.20;99.90;;;5.30;100.00;101961.00;6096191;23;20468;-91
2022/01/17 03:48:36;;;;;;;82.03;35.65;;;7.20;99.90;;;5.26;100.00;101943.34;6097306;23;20030;-92
2022/01/17 03:51:04;;;;;;;88.97;36.65;;;7.20;99.90;;;5.25;100.00;101947.00;6097642;23;20018;-91
2022/01/17 03:53:33;;;;;;;88.55;37.63;;;7.30;99.90;;;5.20;100.00;101950.06;6123104;23;20096;-91
2022/01/17 03:56:00;;;;;;;79.47;36.33;;;7.20;99.90;;;5.22;100.00;101958.03;6123179;23;20033;-92
2022/01/17 03:58:30;;;;;;;80.32;34.92;;;7.20;99.90;;;5.21;100.00;101961.69;6123132;23;20468;-91
2022/01/17 04:01:01;;;;;;;79.65;35.72;;;7.20;99.90;;;5.21;100.00;101951.75;6121620;23;20022;-92
2022/01/17 04:03:29;;;;;;;80.43;35.38;;;7.20;99.90;;;5.20;100.00;101950.06;6123538;23;20085;-91
2022/01/17 04:05:57;;;;;;;79.88;36.30;;;7.20;99.90;;;5.21;100.00;101937.41;6123129;23;20018;-90
2022/01/17 04:08:25;;;;;;;85.30;35.58;;;7.20;99.90;;;5.27;100.00;101951.31;6123514;23;20022;-91
2022/01/17 04:10:52;;;;;;;78.70;35.00;;;7.10;99.90;;;5.22;100.00;101949.94;6123478;23;20014;-91
2022/01/17 04:13:20;;;;;;;79.07;33.38;;;7.20;99.90;;;5.25;100.00;101973.97;6121971;23;20380;-90
2022/01/17 04:15:49;;;;;;;89.72;35.75;;;7.20;99.90;;;5.24;100.00;101972.28;6122931;23;20022;-91
2022/01/17 05:12:42;;;;;;;64.18;27.95;;;7.10;99.90;;;5.13;100.00;102007.28;6077741;23;20540;-87
2022/01/17 05:15:22;;;;;;;58.35;24.73;;;7.10;99.90;;;5.20;100.00;102005.88;6093172;23;20019;-84
2022/01/17 05:18:13;;;;;;;58.85;25.70;;;7.10;99.90;;;5.23;100.00;102013.72;6099883;23;20053;-93
2022/01/17 05:20:44;;;;;;;51.43;23.57;;;7.10;99.90;;;5.16;100.00;102013.31;6101300;23;20053;-96
2022/01/17 05:23:14;;;;;;;54.78;23.20;;;7.10;99.90;;;5.11;100.00;102015.50;6104023;23;20348;-94
2022/01/17 05:25:43;;;;;;;55.80;23.50;;;7.10;99.90;;;5.14;100.00;102014.41;6102650;23;20030;-95
2022/01/17 05:28:11;;;;;;;54.25;22.73;;;7.00;99.90;;;5.14;100.00;102020.69;6102592;23;20030;-95
2022/01/17 05:30:39;;;;;;;50.53;21.67;;;7.00;99.90;;;5.11;100.00;102017.34;6101256;23;20468;-95
2022/01/17 05:33:06;;;;;;;52.17;21.48;;;7.00;99.90;;;5.10;100.00;102024.53;6100505;23;20427;-93
2022/01/17 05:35:34;;;;;;;46.75;20.52;;;7.00;99.90;;;5.05;100.00;102027.59;6124819;23;20029;-94
2022/01/17 05:38:02;;;;;;;50.75;21.02;;;7.00;99.90;;;5.06;100.00;102032.03;6124484;23;20337;-93
2022/01/17 05:40:29;;;;;;;52.15;21.00;;;7.00;99.90;;;5.00;100.00;102018.97;6099332;23;20026;-93
2022/01/17 05:42:58;;;;;;;59.00;21.65;;;7.00;99.90;;;5.01;100.00;102020.69;6124093;23;20508;-93
2022/01/17 05:45:25;;;;;;;53.85;21.60;;;7.00;99.90;;;5.02;100.00;102022.41;6099270;23;20322;-93
2022/01/17 05:47:52;;;;;;;42.28;20.33;;;7.00;99.90;;;5.07;100.00;102022.94;6125184;23;20085;-93
2022/01/17 05:50:20;;;;;;;45.10;19.83;;;7.00;99.90;;;5.01;100.00;102031.50;6099575;23;20046;-93
2022/01/17 05:52:47;;;;;;;43.13;19.67;;;7.00;99.90;;;5.03;100.00;102024.16;6123884;23;20102;-94
2022/01/17 05:55:16;;;;;;;46.63;19.83;;;7.00;99.90;;;5.05;100.00;102015.94;6123402;23;20073;-94
2022/01/17 05:57:44;;;;;;;54.55;20.70;;;7.00;99.90;;;5.06;100.00;102013.16;6099564;23;20096;-92
2022/01/17 06:00:17;;;;;;;50.08;20.00;;;7.00;99.90;;;5.03;100.00;102007.97;6099522;23;20535;-94
2022/01/17 06:02:48;;;;;;;48.10;19.92;;;7.00;99.90;;;5.01;100.00;102020.69;6149751;23;20030;-94
2022/01/17 06:05:15;;;;;;;48.90;19.98;;;7.00;99.90;;;5.07;100.00;102014.84;6100015;23;20105;-93
2022/01/17 06:07:42;;;;;;;39.92;18.52;;;7.00;99.90;;;5.12;100.00;102011.81;6099574;23;20037;-94
2022/01/17 06:10:10;;;;;;;41.80;17.85;;;7.00;99.90;;;5.13;100.00;102018.09;6099296;23;20055;-95
2022/01/17 06:12:37;;;;;;;43.20;18.98;;;7.00;99.90;;;5.16;100.00;102023.25;6099598;23;20026;-92
2022/01/17 06:15:05;;;;;;;45.53;18.50;;;7.00;99.90;;;5.09;100.00;102012.03;6098783;23;20073;-89
2022/01/17 06:17:34;;;;;;;58.15;21.27;;;7.00;99.90;;;5.11;100.00;102015.50;6122476;23;20061;-91
2022/01/17 06:20:02;;;;;;;56.53;22.63;;;7.00;99.90;;;5.14;100.00;102014.41;6120564;23;20357;-92
2022/01/17 06:22:35;;;;;;;39.78;18.75;;;7.00;99.90;;;5.07;100.00;102031.03;6096391;23;20080;-94
2022/01/17 06:25:03;;;;;;;44.03;20.13;;;7.10;99.90;;;5.09;100.00;102018.28;6095778;23;20021;-89
2022/01/17 06:27:31;;;;;;;45.03;19.50;;;7.00;99.90;;;5.16;100.00;102021.44;6095597;23;20330;-85
2022/01/17 06:29:59;;;;;;;51.08;20.23;;;7.00;99.90;;;5.13;100.00;102008.16;6121890;23;20018;-91
2022/01/17 06:32:28;;;;;;;39.35;17.83;;;7.00;99.90;;;5.08;100.00;102021.97;6096108;23;20026;-90
2022/01/17 06:34:57;;;;;;;44.75;18.25;;;7.00;99.90;;;5.13;100.00;102023.47;6095767;23;20101;-92
2022/01/17 06:37:26;;;;;;;43.60;18.13;;;7.00;99.90;;;5.16;100.00;102013.31;6096171;23;20098;-92
2022/01/17 06:39:54;;;;;;;46.35;18.02;;;7.00;99.90;;;5.22;100.00;102017.41;6121787;23;20591;-93
2022/01/17 06:42:21;;;;;;;41.10;17.45;;;7.00;99.90;;;5.19;100.00;102012.22;6097775;23;20042;-92
2022/01/17 06:44:49;;;;;;;40.15;18.30;;;7.00;99.90;;;5.17;100.00;102003.38;6146464;23;20026;-92
2022/01/17 06:47:17;;;;;;;42.30;17.85;;;7.10;99.90;;;5.15;100.00;102002.63;6096633;23;20523;-92
2022/01/17 06:49:44;;;;;;;38.88;17.23;;;7.10;99.90;;;5.13;100.00;101991.09;6097606;23;20395;-91
2022/01/17 06:52:13;;;;;;;41.65;17.80;;;7.10;99.90;;;5.13;100.00;101985.69;6121494;23;20057;-93
2022/01/17 06:54:41;;;;;;;41.20;17.83;;;7.00;99.90;;;4.99;100.00;101995.66;6120813;23;20073;-94
2022/01/17 06:57:08;;;;;;;39.28;17.92;;;7.00;99.90;;;5.02;100.00;101990.03;6096859;23;20132;-92
2022/01/17 06:59:36;;;;;;;40.83;18.67;;;7.00;99.90;;;5.09;100.00;102010.19;6098295;23;20053;-93
2022/01/17 07:02:04;;;;;;;40.95;17.70;;;7.00;99.90;;;5.08;100.00;102021.97;6123683;23;20032;-93
2022/01/17 07:04:32;;;;;;;42.22;17.80;;;7.00;99.90;;;5.04;100.00;102030.41;6122861;23;20032;-93
2022/01/17 07:07:00;;;;;;;39.58;17.52;;;7.00;99.90;;;4.97;100.00;102031.81;6098934;23;20022;-94
2022/01/17 07:09:30;;;;;;;40.00;16.80;;;7.00;99.90;;;5.00;100.00;102035.16;6123143;23;20073;-91
2022/01/17 07:12:01;;;;;;;39.05;17.60;;;7.00;99.90;;;5.04;100.00;102063.63;6098961;23;20049;-93
2022/01/17 07:14:29;;;;;;;42.75;17.92;;;7.00;99.90;;;5.00;100.00;102055.88;6123035;23;20030;-92
2022/01/17 07:16:57;;;;;;;46.65;19.48;;;7.00;99.90;;;4.97;100.00;102026.41;6123326;23;20022;-94
2022/01/17 07:19:25;;;;;;;40.53;18.38;;;7.00;99.90;;;4.94;100.00;102008.63;6098555;23;20341;-93
2022/01/17 07:21:53;;;;;;;38.63;19.23;;;7.00;99.90;;;4.82;100.00;102001.44;6147780;23;20037;-94
2022/01/17 07:24:27;;;;;;;39.88;17.90;;;7.00;99.90;;;4.74;100.00;101996.59;6098590;23;20025;-92
2022/01/17 07:26:55;;;;;;;49.60;19.33;;;6.90;99.90;;;4.71;100.00;101996.78;6147882;23;20018;-92
2022/01/17 07:29:23;;;;;;;44.63;18.58;;;6.90;99.90;;;4.68;100.00;101997.00;6122552;23;20100;-93
2022/01/17 07:31:50;;;;;;;46.25;18.83;;;6.90;99.90;;;4.65;100.00;101997.25;6122582;23;20077;-93
2022/01/17 07:34:18;;;;;;;46.72;19.05;;;6.90;99.90;;;4.63;100.00;102005.44;6098684;23;20773;-92
2022/01/17 07:36:46;;;;;;;37.72;17.85;;;6.80;99.90;;;4.65;100.00;102022.38;6123160;23;20524;-93
2022/01/17 07:39:13;;;;;;;45.25;17.23;;;6.80;99.90;;;4.62;100.00;102019.88;6123337;23;20472;-94
2022/01/17 07:41:43;;;;;;;38.63;17.83;;;6.80;99.90;;;4.60;100.00;102032.59;6098769;23;20018;-94
2022/01/17 07:44:20;;;;;;;48.78;18.27;;;6.70;99.90;;;4.65;100.00;102032.28;6099077;23;20018;-95
2022/01/17 07:46:50;;;;;;;43.17;19.00;;;6.70;99.90;;;4.69;100.00;102045.44;6123514;23;20017;-93
2022/01/17 07:49:19;;;;;;;48.00;19.38;;;6.80;99.90;;;4.70;100.00;102033.69;6099457;23;20353;-95
2022/01/17 07:51:50;;;;;;;45.78;19.30;;;6.80;99.90;;;4.76;100.00;102045.00;6099373;23;20548;-92
2022/01/17 07:54:18;;;;;;;49.70;19.70;;;6.80;99.90;;;4.82;100.00;102047.28;6098561;23;20030;-95
2022/01/17 07:56:51;;;;;;;45.13;18.73;;;6.80;99.90;;;4.89;100.00;102056.63;6123470;23;20444;-93
2022/01/17 07:59:19;;;;;;;48.35;19.48;;;6.80;99.90;;;4.94;100.00;102043.69;6098595;23;20815;-93
2022/01/17 08:01:52;;;;;;;46.25;20.27;;;6.80;99.90;;;4.99;100.00;102060.41;6123653;23;20030;-93
2022/01/17 08:04:19;;;;;;;43.63;20.10;;;6.90;99.90;;;4.99;100.00;102065.81;6098979;23;20029;-94
2022/01/17 08:06:49;;;;;;;41.22;20.60;;;6.90;99.90;;;5.03;100.00;102055.66;6098940;23;20453;-93
2022/01/17 08:09:22;;;;;;;44.78;21.38;;;6.90;99.90;;;5.08;100.00;102070.56;6099000;23;20026;-93
2022/01/17 08:11:55;;;;;;;46.53;22.20;;;6.90;99.90;;;5.06;100.00;102072.50;6121669;23;20081;-93
2022/01/17 08:14:25;;;;;;;43.83;20.15;;;6.90;99.90;;;5.12;100.00;102073.88;6098481;23;20022;-92
2022/01/17 08:16:53;;;;;;;49.65;22.30;;;7.00;99.90;;;5.08;100.00;102073.25;6098757;23;20026;-93
2022/01/17 08:19:23;;;;;;;48.78;23.83;;;7.00;99.90;;;5.17;100.00;102084.34;6098194;23;20475;-93
2022/01/17 08:21:52;;;;;;;43.63;22.10;;;7.00;99.90;;;5.16;100.00;102086.19;6122693;23;20475;-94
2022/01/17 08:24:19;;;;;;;49.17;22.90;;;7.00;99.90;;;5.21;100.00;102083.16;6097690;23;20096;-94
2022/01/17 08:26:47;;;;;;;47.88;22.17;;;7.00;99.90;;;5.24;100.00;102074.84;6122817;23;20022;-95
2022/01/17 08:29:16;;;;;;;46.78;22.42;;;7.10;99.90;;;5.28;100.00;102088.00;6097219;23;20438;-93
2022/01/17 08:31:47;;;;;;;50.40;24.55;;;7.10;99.90;;;5.32;100.00;102079.69;6146988;23;20025;-92
2022/01/17 08:34:17;;;;;;;44.92;23.63;;;7.10;99.90;;;5.37;100.00;102086.47;6099954;23;20052;-93
2022/01/17 08:36:45;;;;;;;45.97;24.27;;;7.10;99.90;;;5.39;100.00;102072.88;6099509;23;20022;-94
2022/01/17 08:39:13;;;;;;;47.95;24.55;;;7.10;99.90;;;5.40;100.00;102061.94;6099275;23;20105;-94
2022/01/17 08:41:42;;;;;;;46.10;24.90;;;7.10;99.90;;;5.43;100.00;102059.03;6100017;23;20097;-93
2022/01/17 08:44:12;;;;;;;47.15;26.20;;;7.10;99.90;;;5.47;100.00;102062.34;6099833;23;20022;-93
2022/01/17 08:46:41;;;;;;;50.60;26.25;;;7.20;99.90;;;5.43;100.00;102058.16;6100112;23;20105;-95
2022/01/17 08:49:10;;;;;;;52.97;25.13;;;7.20;99.90;;;5.42;100.00;102057.28;6148242;23;20636;-93
2022/01/17 08:51:38;;;;;;;46.22;24.67;;;7.30;99.90;;;5.45;100.00;102061.59;6100201;23;20056;-93
2022/01/17 08:54:07;;;;;;;52.08;27.55;;;7.30;99.90;;;5.49;100.00;102063.09;6100055;23;20026;-93
2022/01/17 08:56:34;;;;;;;49.67;26.25;;;7.30;99.90;;;5.48;100.00;102055.97;6124730;23;20032;-92
2022/01/17 08:59:03;;;;;;;51.55;27.85;;;7.30;99.90;;;5.48;100.00;102081.16;6099499;23;20036;-93
2022/01/17 09:01:31;;;;;;;49.60;27.27;;;7.30;99.90;;;5.49;100.00;102085.56;6123977;23;20322;-93
2022/01/17 09:04:06;;;;;;;48.33;27.38;;;7.30;99.90;;;5.53;100.00;102091.59;6122822;23;20072;-95
2022/01/17 09:06:33;;;;;;;52.22;27.85;;;7.30;99.90;;;5.56;100.00;102075.19;6122389;23;20024;-92
2022/01/17 09:09:01;;;;;;;54.00;28.13;;;7.40;99.90;;;5.53;100.00;102085.34;6121208;23;20068;-92
2022/01/17 09:11:29;;;;;;;51.10;29.00;;;7.40;99.90;;;5.56;100.00;102094.09;6097652;23;20462;-91
2022/01/17 09:13:56;;;;;;;56.45;28.42;;;7.40;99.90;;;5.57;100.00;102100.34;6097374;23;20014;-90
2022/01/17 09:16:24;;;;;;;52.33;28.48;;;7.40;99.90;;;5.62;100.00;102106.28;6096727;23;20468;-93
2022/01/17 09:18:51;;;;;;;51.95;28.42;;;7.40;99.90;;;5.63;100.00;102103.44;6122951;23;20547;-91
2022/01/17 09:21:20;;;;;;;51.00;28.15;;;7.40;99.90;;;5.63;100.00;102098.03;6121666;23;20026;-91
2022/01/17 09:23:49;;;;;;;49.95;28.50;;;7.40;99.90;;;5.54;100.00;102096.03;6096906;23;20018;-91
2022/01/17 09:26:18;;;;;;;48.17;27.90;;;7.40;99.90;;;5.60;100.00;102100.13;6120914;23;20025;-89
2022/01/17 10:00:26;;;;;;;52.28;26.55;;;7.50;99.90;;;5.70;100.00;102152.47;6092973;23;20038;-91
2022/01/17 10:03:05;;;;;;;54.88;26.50;;;7.50;99.90;;;5.68;100.00;102162.53;6118737;23;20449;-92
2022/01/17 10:05:34;;;;;;;48.15;26.65;;;7.50;99.90;;;5.63;100.00;102152.06;6117754;23;20023;-93
2022/01/17 10:08:05;;;;;;;51.92;27.48;;;7.50;99.90;;;5.61;100.00;102147.75;6117299;23;20579;-92
2022/01/17 10:10:44;;;;;;;53.60;28.80;;;7.50;99.90;;;5.65;100.00;102170.84;6091477;23;20053;-92
2022/01/17 10:13:17;;;;;;;56.15;28.15;;;7.50;99.90;;;5.66;100.00;102156.38;6092574;23;20027;-92
2022/01/17 10:16:02;;;;;;;56.40;28.95;;;7.50;99.90;;;5.59;100.00;102149.69;6118091;23;20026;-94
2022/01/17 10:18:39;;;;;;;55.35;28.73;;;7.50;99.90;;;5.56;100.00;102140.00;6097387;23;20022;-83
2022/01/17 10:21:13;;;;;;;53.08;27.50;;;7.50;99.90;;;5.59;100.00;102166.75;6169357;23;20338;-85
2022/01/17 10:24:01;;;;;;;55.83;29.15;;;7.50;99.90;;;5.60;100.00;102156.84;6144419;23;20030;-83
2022/01/17 10:26:55;;;;;;;57.70;29.17;;;7.50;99.90;;;5.59;100.00;102172.16;6121176;23;20037;-83
2022/01/17 10:35:17;;;;;;;60.45;29.30;;;7.50;99.90;;;5.67;100.00;102171.59;6120600;23;20025;-83
2022/01/17 10:38:02;;;;;;;54.47;28.23;;;7.50;99.90;;;5.67;100.00;102166.19;6121187;23;20117;-82
2022/01/17 10:40:32;;;;;;;51.40;27.92;;;7.60;99.90;;;5.64;100.00;102166.44;6121320;23;20077;-86
2022/01/17 10:43:01;;;;;;;47.22;25.95;;;7.50;99.90;;;5.65;100.00;102165.44;6121388;23;20357;-85
2022/01/17 10:45:36;;;;;;;51.83;28.10;;;7.50;99.90;;;5.55;100.00;102146.34;6120873;23;20046;-80
2022/01/17 10:48:06;;;;;;;54.38;27.08;;;7.60;99.90;;;5.60;100.00;102146.91;6121044;23;20022;-80
2022/01/17 10:50:38;;;;;;;51.63;27.85;;;7.60;99.90;;;5.63;100.00;102145.78;6121068;23;20025;-80
2022/01/17 10:53:06;;;;;;;;;;;7.60;99.90;;;5.71;100.00;102142.53;6120471;23;20025;-80
2022/01/17 10:55:36;;;;;;;52.00;27.08;;;7.50;99.90;;;5.73;100.00;102151.38;6120873;23;19936;-80
2022/01/17 10:58:07;;;;;;;53.08;26.33;;;7.60;99.90;;;5.74;100.00;102151.28;6121579;23;20049;-81
2022/01/17 11:00:37;;;;;;;43.22;25.83;;;7.50;99.90;;;5.68;100.00;102155.28;6121165;23;20050;-82
2022/01/17 11:03:09;;;;;;;49.17;27.48;;;7.60;99.90;;;5.64;100.00;102161.03;6121369;23;20093;-82
2022/01/17 11:05:37;;;;;;;53.95;28.20;;;7.60;99.90;;;5.60;100.00;102167.66;6121094;23;20026;-83
2022/01/17 11:08:05;;;;;;;50.10;26.67;;;7.60;99.90;;;5.60;100.00;102175.75;6121143;23;20364;-82
2022/01/17 11:10:36;;;;;;;43.50;24.75;;;7.60;99.90;;;5.64;100.00;102190.75;6117600;23;20536;-82
2022/01/17 11:13:07;;;;;;;42.22;24.58;;;7.60;99.90;;;5.69;100.00;102185.84;6120949;23;20250;-82
2022/01/17 11:15:38;;;;;;;47.63;24.75;;;7.60;99.90;;;5.73;100.00;102189.19;6120882;23;20018;-83
2022/01/17 11:18:16;;;;;;;45.78;25.52;;;7.60;99.90;;;5.74;100.00;102197.19;6123482;23;20033;-83
2022/01/17 11:20:44;;;;;;;46.50;23.77;;;7.60;99.90;;;5.82;100.00;102185.84;6149429;23;20032;-82
2022/01/17 11:23:12;;;;;;;45.22;25.35;;;7.60;99.90;;;5.77;100.00;102169.97;6150398;23;20021;-83
2022/01/17 11:25:43;;;;;;;49.60;25.48;;;7.60;99.90;;;5.76;100.00;102161.97;6149918;23;20049;-82
2022/01/17 11:28:14;;;;;;;46.63;25.63;;;7.60;99.90;;;5.74;100.00;102167.47;6150289;23;20025;-80
2022/01/17 11:30:42;;;;;;;46.33;25.35;;;7.60;99.90;;;5.75;100.00;102174.63;6150667;23;20444;-81
2022/01/17 11:33:12;;;;;;;54.38;27.48;;;7.60;99.90;;;5.75;100.00;102160.22;6150795;23;20349;-80
2022/01/17 11:35:42;;;;;;;50.38;26.08;;;7.60;99.90;;;5.86;100.00;102169.31;6150176;23;20017;-80
2022/01/17 11:38:14;;;;;;;49.38;25.23;;;7.60;99.90;;;5.85;100.00;102182.91;6150299;23;20068;-80
2022/01/17 11:40:44;;;;;;;48.92;24.65;;;7.70;99.90;;;5.90;100.00;102177.16;6150302;23;20021;-80
2022/01/17 11:43:21;;;;;;;59.05;25.50;;;7.70;99.90;;;5.80;100.00;102169.72;6150702;23;20021;-80
2022/01/17 11:45:50;;;;;;;43.40;24.60;;;7.70;99.90;;;5.85;100.00;102183.78;6149717;23;20021;-80
2022/01/17 11:48:30;;;;;;;51.72;26.45;;;7.70;99.90;;;5.85;100.00;102178.38;6150364;23;20025;-80
2022/01/17 11:51:10;;;;;;;52.42;26.92;;;7.70;99.90;;;5.82;100.00;102181.28;6149872;23;20028;-81
2022/01/17 11:53:46;;;;;;;49.00;24.95;;;7.70;99.90;;;5.74;100.00;102174.72;6150432;23;20053;-80